Fishing Creek, Maryland
Current Conditions -  °F | °C
As of 4:52 AM on Monday 26 Jan 2015 (Local Time) from KNHK Reporting Station
Light Rain Light Rain  
Wind Chill: 33°   Ceiling: 5000
Heat Index: 39°   Visibility: 10mi
Dew Point: 35°   Wind: 9mph
Humidity: 86%   Direction: 110°ESE
Pressure: 29.79"   Gusts: NA
Location:  38.31°N, 76.23°W
Report Text: KNHK 260952Z AUTO 11008KT 10SM -RA OVC050 04/02 A2979 RMK AO2 SLP087 P0001 T00390017 VISNO RY24 $
Loading
Personal Weather Stations






























Interactive Weather Map New forecast layout! Learn more

10-Day Weather Forecast

Advertisements
Track Severe Weather on mobile